Nearby METAR Reports

 

EGQS - Lossiemouth Raf, United Kingdom
Distance from station: NW 60mi, 97km
Updated: 14/08/2020 19:50
Clear
Clear
 Wind from E
Wind: E 8 mph , 13 km/h
Temperature: 15°C
Dew Point: 13°C
Humidity: 88%
Barometer: 1018 hPa
Clouds: Clear
Visibility: 6 miles , 10 km
2020/08/14 18:50 EGQS 141850Z AUTO 08007KT 9999 // NCD 15/13 Q1018